aviador You're here:

KASD Decoded Metar

SLIDELL 22 in LA, USA
Report Time2017-07-22 22:10:00
UTC Time2017-07-22 22:34:06
Flight Rules vfr VFR
Wind220° at 07 kt
W.Decomp.*RWY 18: 5.5 kt HW 4.3 kt RCW
W.Rank220° ranks 20
Current wind is above 220° avg. (5.3)
Visibility9999 m
Phenomena:N/A
Clouds:Scattered 020 Hf
Expected CloudBase > 2,800 ft AGL from Temp-Dew spread
CeilingNone
Temp29°C (ISA +14)
Dew Point22°C (66% RH)
Heat Index32.0°C
QNH1015 hPa
Density Alt1,926 ft
Elevation30 ft
Report Wrong Elevation
Raw Report
KASD 222210Z AUTO 22007KT 10SM SCT020 29/22 A2996 RMK AO2 LTG DSNT
E AND SE RAE2158 P0000 T02890217=

Extra information for KASD:More info

Metar Taf Metar & Taf Last 4 Metars F.Rules Stats Wind Profile Meteogram Temp Stats Airport Information Weather charts Add Link Nearby VenuesMetar ALERT Operation Metar Decoded Social comments

AIRNAV info for KASD